sensor_id;sensor_type;location;lat;lon;timestamp;P1;durP1;ratioP1;P2;durP2;ratioP2
5209;SDS011;2624;48.048;11.706;2022-08-04T00:04:00;1.90;;;1.80;;
5209;SDS011;2624;48.048;11.706;2022-08-04T00:09:06;4.83;;;1.60;;
5209;SDS011;2624;48.048;11.706;2022-08-04T00:14:11;1.60;;;1.57;;
5209;SDS011;2624;48.048;11.706;2022-08-04T00:19:15;1.70;;;1.70;;
5209;SDS011;2624;48.048;11.706;2022-08-04T00:24:22;1.83;;;1.73;;
5209;SDS011;2624;48.048;11.706;2022-08-04T00:29:24;2.30;;;1.93;;
5209;SDS011;2624;48.048;11.706;2022-08-04T00:34:27;2.03;;;1.93;;
5209;SDS011;2624;48.048;11.706;2022-08-04T00:39:32;1.90;;;1.80;;
5209;SDS011;2624;48.048;11.706;2022-08-04T00:44:36;3.57;;;1.60;;
5209;SDS011;2624;48.048;11.706;2022-08-04T00:49:47;2.83;;;1.40;;
5209;SDS011;2624;48.048;11.706;2022-08-04T00:55:09;1.70;;;1.60;;
5209;SDS011;2624;48.048;11.706;2022-08-04T01:00:22;1.53;;;1.40;;
5209;SDS011;2624;48.048;11.706;2022-08-04T01:05:27;3.70;;;1.83;;
5209;SDS011;2624;48.048;11.706;2022-08-04T01:10:39;2.30;;;1.80;;
5209;SDS011;2624;48.048;11.706;2022-08-04T01:15:48;1.90;;;1.80;;
5209;SDS011;2624;48.048;11.706;2022-08-04T01:21:01;2.57;;;1.80;;
5209;SDS011;2624;48.048;11.706;2022-08-04T01:31:59;1.83;;;1.73;;
5209;SDS011;2624;48.048;11.706;2022-08-04T01:37:04;1.60;;;1.60;;
5209;SDS011;2624;48.048;11.706;2022-08-04T01:42:10;4.00;;;1.90;;
5209;SDS011;2624;48.048;11.706;2022-08-04T01:47:16;1.50;;;1.50;;
5209;SDS011;2624;48.048;11.706;2022-08-04T01:52:21;1.80;;;1.60;;
5209;SDS011;2624;48.048;11.706;2022-08-04T01:57:24;1.60;;;1.57;;
5209;SDS011;2624;48.048;11.706;2022-08-04T02:02:28;1.90;;;1.80;;
5209;SDS011;2624;48.048;11.706;2022-08-04T02:07:32;1.03;;;1.03;;
5209;SDS011;2624;48.048;11.706;2022-08-04T02:12:50;1.77;;;1.67;;
5209;SDS011;2624;48.048;11.706;2022-08-04T02:17:59;1.90;;;1.80;;
5209;SDS011;2624;48.048;11.706;2022-08-04T02:23:05;1.70;;;1.60;;
5209;SDS011;2624;48.048;11.706;2022-08-04T02:28:14;2.13;;;1.80;;
5209;SDS011;2624;48.048;11.706;2022-08-04T02:33:24;2.40;;;1.60;;
5209;SDS011;2624;48.048;11.706;2022-08-04T02:38:39;1.50;;;1.50;;
5209;SDS011;2624;48.048;11.706;2022-08-04T02:43:54;1.80;;;1.80;;
5209;SDS011;2624;48.048;11.706;2022-08-04T02:49:00;1.47;;;1.47;;
5209;SDS011;2624;48.048;11.706;2022-08-04T02:54:04;1.60;;;1.60;;
5209;SDS011;2624;48.048;11.706;2022-08-04T02:59:07;1.50;;;1.40;;
5209;SDS011;2624;48.048;11.706;2022-08-04T03:04:14;1.80;;;1.70;;
5209;SDS011;2624;48.048;11.706;2022-08-04T03:10:00;2.23;;;1.70;;
5209;SDS011;2624;48.048;11.706;2022-08-04T03:15:28;2.30;;;1.43;;
5209;SDS011;2624;48.048;11.706;2022-08-04T03:21:06;1.40;;;1.40;;
5209;SDS011;2624;48.048;11.706;2022-08-04T03:26:35;2.33;;;1.60;;
5209;SDS011;2624;48.048;11.706;2022-08-04T03:32:12;1.40;;;1.40;;
5209;SDS011;2624;48.048;11.706;2022-08-04T03:37:42;3.27;;;1.97;;
5209;SDS011;2624;48.048;11.706;2022-08-04T03:43:09;1.93;;;1.80;;
5209;SDS011;2624;48.048;11.706;2022-08-04T03:48:38;1.70;;;1.60;;
5209;SDS011;2624;48.048;11.706;2022-08-04T03:54:32;2.60;;;1.60;;
5209;SDS011;2624;48.048;11.706;2022-08-04T04:00:04;1.90;;;1.80;;
5209;SDS011;2624;48.048;11.706;2022-08-04T04:05:19;7.00;;;2.00;;
5209;SDS011;2624;48.048;11.706;2022-08-04T04:10:56;3.67;;;1.87;;
5209;SDS011;2624;48.048;11.706;2022-08-04T04:16:37;1.60;;;1.60;;
5209;SDS011;2624;48.048;11.706;2022-08-04T04:21:56;2.50;;;2.40;;
5209;SDS011;2624;48.048;11.706;2022-08-04T04:27:07;3.67;;;1.90;;
5209;SDS011;2624;48.048;11.706;2022-08-04T04:32:20;1.80;;;1.70;;
5209;SDS011;2624;48.048;11.706;2022-08-04T04:37:31;1.80;;;1.60;;
5209;SDS011;2624;48.048;11.706;2022-08-04T04:42:57;4.40;;;2.20;;
5209;SDS011;2624;48.048;11.706;2022-08-04T04:48:25;2.23;;;2.13;;
5209;SDS011;2624;48.048;11.706;2022-08-04T04:53:35;3.97;;;1.93;;
5209;SDS011;2624;48.048;11.706;2022-08-04T04:58:46;2.07;;;1.87;;
5209;SDS011;2624;48.048;11.706;2022-08-04T05:03:55;2.70;;;1.80;;
5209;SDS011;2624;48.048;11.706;2022-08-04T05:09:15;1.90;;;1.80;;
5209;SDS011;2624;48.048;11.706;2022-08-04T05:14:30;2.40;;;1.80;;
5209;SDS011;2624;48.048;11.706;2022-08-04T05:19:40;1.90;;;1.90;;
5209;SDS011;2624;48.048;11.706;2022-08-04T05:24:53;2.13;;;2.03;;
5209;SDS011;2624;48.048;11.706;2022-08-04T05:30:03;3.97;;;2.30;;
5209;SDS011;2624;48.048;11.706;2022-08-04T05:35:08;1.83;;;1.83;;
5209;SDS011;2624;48.048;11.706;2022-08-04T05:40:12;2.07;;;1.97;;
5209;SDS011;2624;48.048;11.706;2022-08-04T05:45:19;2.60;;;2.17;;
5209;SDS011;2624;48.048;11.706;2022-08-04T05:50:22;2.43;;;2.20;;
5209;SDS011;2624;48.048;11.706;2022-08-04T05:55:25;3.50;;;2.83;;
5209;SDS011;2624;48.048;11.706;2022-08-04T06:00:29;4.07;;;2.87;;
5209;SDS011;2624;48.048;11.706;2022-08-04T06:05:32;3.97;;;3.43;;
5209;SDS011;2624;48.048;11.706;2022-08-04T06:10:35;11.13;;;3.30;;
5209;SDS011;2624;48.048;11.706;2022-08-04T06:15:40;11.63;;;2.57;;
5209;SDS011;2624;48.048;11.706;2022-08-04T06:20:45;2.77;;;2.57;;
5209;SDS011;2624;48.048;11.706;2022-08-04T06:25:52;2.13;;;2.07;;
5209;SDS011;2624;48.048;11.706;2022-08-04T06:30:58;4.60;;;2.30;;
5209;SDS011;2624;48.048;11.706;2022-08-04T06:36:05;8.57;;;2.70;;
5209;SDS011;2624;48.048;11.706;2022-08-04T06:41:07;2.37;;;2.27;;
5209;SDS011;2624;48.048;11.706;2022-08-04T06:46:10;2.57;;;2.47;;
5209;SDS011;2624;48.048;11.706;2022-08-04T06:51:12;2.63;;;2.13;;
5209;SDS011;2624;48.048;11.706;2022-08-04T06:56:16;2.60;;;2.40;;
5209;SDS011;2624;48.048;11.706;2022-08-04T07:01:21;2.50;;;2.40;;
5209;SDS011;2624;48.048;11.706;2022-08-04T07:06:24;2.03;;;1.93;;
5209;SDS011;2624;48.048;11.706;2022-08-04T07:11:26;2.37;;;2.27;;
5209;SDS011;2624;48.048;11.706;2022-08-04T07:16:30;2.53;;;2.33;;
5209;SDS011;2624;48.048;11.706;2022-08-04T07:21:33;2.50;;;2.30;;
5209;SDS011;2624;48.048;11.706;2022-08-04T07:26:35;2.70;;;2.50;;
5209;SDS011;2624;48.048;11.706;2022-08-04T07:31:38;2.93;;;2.40;;
5209;SDS011;2624;48.048;11.706;2022-08-04T07:36:40;2.23;;;2.13;;
5209;SDS011;2624;48.048;11.706;2022-08-04T07:41:42;2.33;;;2.23;;
5209;SDS011;2624;48.048;11.706;2022-08-04T07:46:46;5.47;;;2.87;;
5209;SDS011;2624;48.048;11.706;2022-08-04T07:51:49;2.57;;;2.47;;
5209;SDS011;2624;48.048;11.706;2022-08-04T07:56:51;3.17;;;2.50;;
5209;SDS011;2624;48.048;11.706;2022-08-04T08:01:55;2.60;;;2.50;;
5209;SDS011;2624;48.048;11.706;2022-08-04T08:06:59;2.20;;;2.10;;
5209;SDS011;2624;48.048;11.706;2022-08-04T08:12:01;2.57;;;2.37;;
5209;SDS011;2624;48.048;11.706;2022-08-04T08:17:05;3.10;;;2.90;;
5209;SDS011;2624;48.048;11.706;2022-08-04T08:22:09;3.07;;;2.40;;
5209;SDS011;2624;48.048;11.706;2022-08-04T08:27:11;3.83;;;2.90;;
5209;SDS011;2624;48.048;11.706;2022-08-04T08:32:15;3.00;;;2.80;;
5209;SDS011;2624;48.048;11.706;2022-08-04T08:37:18;2.90;;;2.70;;
5209;SDS011;2624;48.048;11.706;2022-08-04T08:42:43;2.20;;;2.10;;
5209;SDS011;2624;48.048;11.706;2022-08-04T08:48:09;2.50;;;2.40;;
5209;SDS011;2624;48.048;11.706;2022-08-04T08:53:24;2.73;;;2.40;;
5209;SDS011;2624;48.048;11.706;2022-08-04T08:58:36;2.70;;;2.60;;
5209;SDS011;2624;48.048;11.706;2022-08-04T09:03:58;2.27;;;2.17;;
5209;SDS011;2624;48.048;11.706;2022-08-04T09:09:23;2.27;;;2.17;;
5209;SDS011;2624;48.048;11.706;2022-08-04T09:14:44;1.97;;;1.87;;
5209;SDS011;2624;48.048;11.706;2022-08-04T09:19:54;4.30;;;2.43;;
5209;SDS011;2624;48.048;11.706;2022-08-04T09:24:59;2.60;;;2.40;;
5209;SDS011;2624;48.048;11.706;2022-08-04T09:30:05;4.37;;;2.53;;
5209;SDS011;2624;48.048;11.706;2022-08-04T09:35:29;2.53;;;2.33;;
5209;SDS011;2624;48.048;11.706;2022-08-04T09:40:39;9.97;;;2.43;;
5209;SDS011;2624;48.048;11.706;2022-08-04T09:45:49;2.40;;;2.30;;
5209;SDS011;2624;48.048;11.706;2022-08-04T09:51:00;2.60;;;2.50;;
5209;SDS011;2624;48.048;11.706;2022-08-04T09:56:13;2.87;;;2.07;;
5209;SDS011;2624;48.048;11.706;2022-08-04T10:01:23;2.00;;;1.90;;
5209;SDS011;2624;48.048;11.706;2022-08-04T10:06:38;2.20;;;2.10;;
5209;SDS011;2624;48.048;11.706;2022-08-04T10:12:02;1.90;;;1.80;;
5209;SDS011;2624;48.048;11.706;2022-08-04T10:17:27;2.63;;;2.10;;
5209;SDS011;2624;48.048;11.706;2022-08-04T10:22:40;2.10;;;2.00;;
5209;SDS011;2624;48.048;11.706;2022-08-04T10:27:54;1.77;;;1.67;;
5209;SDS011;2624;48.048;11.706;2022-08-04T10:33:02;2.87;;;1.67;;
5209;SDS011;2624;48.048;11.706;2022-08-04T10:38:16;6.30;;;2.47;;
5209;SDS011;2624;48.048;11.706;2022-08-04T10:43:24;1.57;;;1.47;;
5209;SDS011;2624;48.048;11.706;2022-08-04T10:48:40;3.63;;;2.10;;
5209;SDS011;2624;48.048;11.706;2022-08-04T10:53:49;1.90;;;1.90;;
5209;SDS011;2624;48.048;11.706;2022-08-04T10:58:57;2.70;;;2.50;;
5209;SDS011;2624;48.048;11.706;2022-08-04T11:04:03;2.03;;;1.97;;
5209;SDS011;2624;48.048;11.706;2022-08-04T11:09:11;7.20;;;2.13;;
5209;SDS011;2624;48.048;11.706;2022-08-04T11:14:15;2.50;;;2.30;;
5209;SDS011;2624;48.048;11.706;2022-08-04T11:19:24;2.40;;;2.30;;
5209;SDS011;2624;48.048;11.706;2022-08-04T11:24:35;5.33;;;2.10;;
5209;SDS011;2624;48.048;11.706;2022-08-04T11:29:45;1.83;;;1.73;;
5209;SDS011;2624;48.048;11.706;2022-08-04T11:34:59;1.63;;;1.53;;
5209;SDS011;2624;48.048;11.706;2022-08-04T11:40:08;3.10;;;1.93;;
5209;SDS011;2624;48.048;11.706;2022-08-04T11:45:14;2.43;;;2.30;;
5209;SDS011;2624;48.048;11.706;2022-08-04T11:50:20;1.83;;;1.80;;
5209;SDS011;2624;48.048;11.706;2022-08-04T11:55:27;2.23;;;2.03;;
5209;SDS011;2624;48.048;11.706;2022-08-04T12:00:31;1.67;;;1.67;;
5209;SDS011;2624;48.048;11.706;2022-08-04T12:05:40;2.20;;;2.00;;
5209;SDS011;2624;48.048;11.706;2022-08-04T12:10:50;2.60;;;2.03;;
5209;SDS011;2624;48.048;11.706;2022-08-04T12:16:08;10.17;;;1.80;;
5209;SDS011;2624;48.048;11.706;2022-08-04T12:21:17;2.80;;;1.67;;
5209;SDS011;2624;48.048;11.706;2022-08-04T12:26:30;2.57;;;2.33;;
5209;SDS011;2624;48.048;11.706;2022-08-04T12:31:39;1.90;;;1.80;;
5209;SDS011;2624;48.048;11.706;2022-08-04T12:36:47;2.10;;;2.03;;
5209;SDS011;2624;48.048;11.706;2022-08-04T12:42:00;1.77;;;1.67;;
5209;SDS011;2624;48.048;11.706;2022-08-04T12:47:06;1.87;;;1.87;;
5209;SDS011;2624;48.048;11.706;2022-08-04T12:52:09;2.00;;;1.63;;
5209;SDS011;2624;48.048;11.706;2022-08-04T12:57:16;1.80;;;1.70;;
5209;SDS011;2624;48.048;11.706;2022-08-04T13:02:22;1.60;;;1.50;;
5209;SDS011;2624;48.048;11.706;2022-08-04T13:07:27;3.03;;;1.60;;
5209;SDS011;2624;48.048;11.706;2022-08-04T13:12:38;1.57;;;1.57;;
5209;SDS011;2624;48.048;11.706;2022-08-04T13:17:44;1.90;;;1.80;;
5209;SDS011;2624;48.048;11.706;2022-08-04T13:22:50;2.00;;;1.90;;
5209;SDS011;2624;48.048;11.706;2022-08-04T13:27:59;1.50;;;1.50;;
5209;SDS011;2624;48.048;11.706;2022-08-04T13:33:02;1.77;;;1.67;;
5209;SDS011;2624;48.048;11.706;2022-08-04T13:38:05;1.80;;;1.70;;
5209;SDS011;2624;48.048;11.706;2022-08-04T13:43:22;2.00;;;1.63;;
5209;SDS011;2624;48.048;11.706;2022-08-04T13:48:25;6.13;;;1.50;;
5209;SDS011;2624;48.048;11.706;2022-08-04T13:53:33;8.33;;;1.73;;
5209;SDS011;2624;48.048;11.706;2022-08-04T13:58:40;2.00;;;1.67;;
5209;SDS011;2624;48.048;11.706;2022-08-04T14:03:56;2.20;;;2.10;;
5209;SDS011;2624;48.048;11.706;2022-08-04T14:09:09;2.03;;;1.90;;
5209;SDS011;2624;48.048;11.706;2022-08-04T14:14:17;2.17;;;2.07;;
5209;SDS011;2624;48.048;11.706;2022-08-04T14:19:20;1.67;;;1.67;;
5209;SDS011;2624;48.048;11.706;2022-08-04T14:24:22;5.57;;;2.07;;
5209;SDS011;2624;48.048;11.706;2022-08-04T14:29:28;1.87;;;1.40;;
5209;SDS011;2624;48.048;11.706;2022-08-04T14:34:38;2.00;;;1.90;;
5209;SDS011;2624;48.048;11.706;2022-08-04T14:39:41;1.57;;;1.57;;
5209;SDS011;2624;48.048;11.706;2022-08-04T14:44:54;1.93;;;1.73;;
5209;SDS011;2624;48.048;11.706;2022-08-04T14:49:57;3.17;;;1.87;;
5209;SDS011;2624;48.048;11.706;2022-08-04T14:55:13;3.50;;;2.17;;
5209;SDS011;2624;48.048;11.706;2022-08-04T15:00:26;1.93;;;1.90;;
5209;SDS011;2624;48.048;11.706;2022-08-04T15:05:29;3.57;;;2.03;;
5209;SDS011;2624;48.048;11.706;2022-08-04T15:10:32;2.20;;;2.10;;
5209;SDS011;2624;48.048;11.706;2022-08-04T15:15:36;2.90;;;2.00;;
5209;SDS011;2624;48.048;11.706;2022-08-04T15:20:40;6.53;;;1.83;;
5209;SDS011;2624;48.048;11.706;2022-08-04T15:25:42;2.83;;;1.93;;
5209;SDS011;2624;48.048;11.706;2022-08-04T15:30:49;2.27;;;2.10;;
5209;SDS011;2624;48.048;11.706;2022-08-04T15:35:55;6.63;;;1.90;;
5209;SDS011;2624;48.048;11.706;2022-08-04T15:41:13;2.27;;;2.17;;
5209;SDS011;2624;48.048;11.706;2022-08-04T15:46:41;2.00;;;1.77;;
5209;SDS011;2624;48.048;11.706;2022-08-04T15:52:10;8.53;;;2.10;;
5209;SDS011;2624;48.048;11.706;2022-08-04T15:57:14;2.10;;;1.67;;
5209;SDS011;2624;48.048;11.706;2022-08-04T16:02:38;1.80;;;1.73;;
5209;SDS011;2624;48.048;11.706;2022-08-04T16:07:51;1.40;;;1.40;;
5209;SDS011;2624;48.048;11.706;2022-08-04T16:12:55;1.87;;;1.77;;
5209;SDS011;2624;48.048;11.706;2022-08-04T16:17:59;1.90;;;1.80;;
5209;SDS011;2624;48.048;11.706;2022-08-04T16:23:02;3.43;;;2.10;;
5209;SDS011;2624;48.048;11.706;2022-08-04T16:28:34;2.67;;;1.63;;
5209;SDS011;2624;48.048;11.706;2022-08-04T16:33:40;2.70;;;1.67;;
5209;SDS011;2624;48.048;11.706;2022-08-04T16:38:58;1.77;;;1.60;;
5209;SDS011;2624;48.048;11.706;2022-08-04T16:49:30;1.90;;;1.80;;
5209;SDS011;2624;48.048;11.706;2022-08-04T16:54:33;2.57;;;2.33;;
5209;SDS011;2624;48.048;11.706;2022-08-04T16:59:36;2.20;;;1.70;;
5209;SDS011;2624;48.048;11.706;2022-08-04T17:04:39;2.50;;;1.80;;
5209;SDS011;2624;48.048;11.706;2022-08-04T17:09:47;1.70;;;1.60;;
5209;SDS011;2624;48.048;11.706;2022-08-04T17:14:50;2.67;;;2.57;;
5209;SDS011;2624;48.048;11.706;2022-08-04T17:19:53;1.80;;;1.70;;
5209;SDS011;2624;48.048;11.706;2022-08-04T17:24:54;1.90;;;1.53;;
5209;SDS011;2624;48.048;11.706;2022-08-04T17:29:59;1.97;;;1.90;;
5209;SDS011;2624;48.048;11.706;2022-08-04T17:35:03;1.80;;;1.80;;
5209;SDS011;2624;48.048;11.706;2022-08-04T17:40:06;3.70;;;2.30;;
5209;SDS011;2624;48.048;11.706;2022-08-04T17:45:10;4.07;;;2.50;;
5209;SDS011;2624;48.048;11.706;2022-08-04T17:50:24;3.33;;;1.60;;
5209;SDS011;2624;48.048;11.706;2022-08-04T17:55:35;2.00;;;1.90;;
5209;SDS011;2624;48.048;11.706;2022-08-04T18:00:38;1.80;;;1.70;;
5209;SDS011;2624;48.048;11.706;2022-08-04T18:05:41;2.27;;;2.13;;
5209;SDS011;2624;48.048;11.706;2022-08-04T18:10:43;12.73;;;2.30;;
5209;SDS011;2624;48.048;11.706;2022-08-04T18:15:45;2.80;;;1.57;;
5209;SDS011;2624;48.048;11.706;2022-08-04T18:20:48;2.20;;;2.10;;
5209;SDS011;2624;48.048;11.706;2022-08-04T18:25:50;4.27;;;2.10;;
5209;SDS011;2624;48.048;11.706;2022-08-04T18:30:52;1.67;;;1.67;;
5209;SDS011;2624;48.048;11.706;2022-08-04T18:35:55;1.60;;;1.50;;
5209;SDS011;2624;48.048;11.706;2022-08-04T18:40:57;3.73;;;2.10;;
5209;SDS011;2624;48.048;11.706;2022-08-04T18:45:58;11.53;;;2.30;;
5209;SDS011;2624;48.048;11.706;2022-08-04T18:51:01;2.30;;;2.10;;
5209;SDS011;2624;48.048;11.706;2022-08-04T18:56:03;5.27;;;2.30;;
5209;SDS011;2624;48.048;11.706;2022-08-04T19:01:05;2.70;;;2.50;;
5209;SDS011;2624;48.048;11.706;2022-08-04T19:06:10;2.43;;;2.33;;
5209;SDS011;2624;48.048;11.706;2022-08-04T19:11:12;2.80;;;2.60;;
5209;SDS011;2624;48.048;11.706;2022-08-04T19:16:14;2.13;;;2.03;;
5209;SDS011;2624;48.048;11.706;2022-08-04T19:21:17;8.60;;;2.80;;
5209;SDS011;2624;48.048;11.706;2022-08-04T19:26:19;3.43;;;2.07;;
5209;SDS011;2624;48.048;11.706;2022-08-04T19:31:23;8.20;;;2.23;;
5209;SDS011;2624;48.048;11.706;2022-08-04T19:36:27;2.30;;;2.20;;
5209;SDS011;2624;48.048;11.706;2022-08-04T19:41:29;2.60;;;2.10;;
5209;SDS011;2624;48.048;11.706;2022-08-04T19:46:35;2.83;;;2.00;;
5209;SDS011;2624;48.048;11.706;2022-08-04T19:51:38;2.60;;;2.40;;
5209;SDS011;2624;48.048;11.706;2022-08-04T19:56:40;3.83;;;2.80;;
5209;SDS011;2624;48.048;11.706;2022-08-04T20:01:41;2.10;;;2.00;;
5209;SDS011;2624;48.048;11.706;2022-08-04T20:06:44;2.43;;;2.30;;
5209;SDS011;2624;48.048;11.706;2022-08-04T20:11:46;2.83;;;2.17;;
5209;SDS011;2624;48.048;11.706;2022-08-04T20:16:48;7.70;;;2.57;;
5209;SDS011;2624;48.048;11.706;2022-08-04T20:21:51;2.50;;;2.40;;
5209;SDS011;2624;48.048;11.706;2022-08-04T20:26:53;3.00;;;2.50;;
5209;SDS011;2624;48.048;11.706;2022-08-04T20:31:54;6.40;;;2.47;;
5209;SDS011;2624;48.048;11.706;2022-08-04T20:36:57;2.67;;;2.57;;
5209;SDS011;2624;48.048;11.706;2022-08-04T20:41:59;2.23;;;2.10;;
5209;SDS011;2624;48.048;11.706;2022-08-04T20:47:01;2.87;;;2.33;;
5209;SDS011;2624;48.048;11.706;2022-08-04T20:52:04;2.37;;;2.17;;
5209;SDS011;2624;48.048;11.706;2022-08-04T20:57:06;2.40;;;2.30;;
5209;SDS011;2624;48.048;11.706;2022-08-04T21:02:08;5.73;;;2.97;;
5209;SDS011;2624;48.048;11.706;2022-08-04T21:07:11;2.47;;;2.27;;
5209;SDS011;2624;48.048;11.706;2022-08-04T21:12:14;3.63;;;2.80;;
5209;SDS011;2624;48.048;11.706;2022-08-04T21:17:16;2.83;;;2.63;;
5209;SDS011;2624;48.048;11.706;2022-08-04T21:22:19;2.50;;;2.30;;
5209;SDS011;2624;48.048;11.706;2022-08-04T21:27:20;7.10;;;3.10;;
5209;SDS011;2624;48.048;11.706;2022-08-04T21:32:22;18.50;;;2.83;;
5209;SDS011;2624;48.048;11.706;2022-08-04T21:37:25;2.53;;;2.17;;
5209;SDS011;2624;48.048;11.706;2022-08-04T21:42:27;3.73;;;2.97;;
5209;SDS011;2624;48.048;11.706;2022-08-04T21:47:29;3.10;;;2.80;;
5209;SDS011;2624;48.048;11.706;2022-08-04T21:52:32;13.97;;;2.70;;
5209;SDS011;2624;48.048;11.706;2022-08-04T21:57:34;3.23;;;2.60;;
5209;SDS011;2624;48.048;11.706;2022-08-04T22:02:35;2.80;;;2.60;;
5209;SDS011;2624;48.048;11.706;2022-08-04T22:07:38;2.63;;;2.53;;
5209;SDS011;2624;48.048;11.706;2022-08-04T22:12:40;2.60;;;2.50;;
5209;SDS011;2624;48.048;11.706;2022-08-04T22:17:42;6.57;;;3.17;;
5209;SDS011;2624;48.048;11.706;2022-08-04T22:22:45;2.53;;;2.40;;
5209;SDS011;2624;48.048;11.706;2022-08-04T22:27:48;2.73;;;2.63;;
5209;SDS011;2624;48.048;11.706;2022-08-04T22:33:03;2.87;;;2.67;;
5209;SDS011;2624;48.048;11.706;2022-08-04T22:38:08;3.37;;;3.07;;
5209;SDS011;2624;48.048;11.706;2022-08-04T22:43:10;3.10;;;2.90;;
5209;SDS011;2624;48.048;11.706;2022-08-04T22:48:12;5.23;;;3.43;;
5209;SDS011;2624;48.048;11.706;2022-08-04T22:53:15;3.20;;;3.00;;
5209;SDS011;2624;48.048;11.706;2022-08-04T22:58:17;4.33;;;2.77;;
5209;SDS011;2624;48.048;11.706;2022-08-04T23:03:19;3.33;;;3.13;;
5209;SDS011;2624;48.048;11.706;2022-08-04T23:08:22;3.10;;;2.90;;
5209;SDS011;2624;48.048;11.706;2022-08-04T23:13:23;2.70;;;2.60;;
5209;SDS011;2624;48.048;11.706;2022-08-04T23:18:25;5.13;;;2.80;;
5209;SDS011;2624;48.048;11.706;2022-08-04T23:23:28;3.43;;;3.10;;
5209;SDS011;2624;48.048;11.706;2022-08-04T23:28:30;4.83;;;2.77;;
5209;SDS011;2624;48.048;11.706;2022-08-04T23:33:32;3.70;;;3.50;;
5209;SDS011;2624;48.048;11.706;2022-08-04T23:38:35;2.80;;;2.70;;
5209;SDS011;2624;48.048;11.706;2022-08-04T23:43:37;3.33;;;2.87;;
5209;SDS011;2624;48.048;11.706;2022-08-04T23:48:39;3.13;;;2.93;;
5209;SDS011;2624;48.048;11.706;2022-08-04T23:53:43;3.53;;;3.23;;
5209;SDS011;2624;48.048;11.706;2022-08-04T23:58:45;5.47;;;3.00;;
